.
WxDataArchive / Data Records for 2012-11-04
2012-11-03 November 2012 2012-11-05

Data Records for Sunday, 04 November 2012

Time	Temp	Chill	HIndex	Humid	Dewpt	 Wind 	HiWind	WindDir	Rain 	Barom 
-----	----	-----	------	-----	-----	------	------	-------	-----	----- 
00:00	36.3	36.3	36.3	75	29.1	0	0	---	0.00	30.188 
00:05	36.3	36.3	36.3	75	29.1	0	0	---	0.00	30.188 
00:10	36.3	36.3	36.3	75	29.1	0	0	---	0.00	30.188 
00:15	36.3	36.3	36.3	75	29.1	0	0	---	0.00	30.188 
00:20	36.2	36.2	36.2	75	29.1	0	1	68	0.00	30.188 
00:25	36.2	36.2	36.2	75	29.1	0	1	68	0.00	30.188 
00:30	36.0	36.0	36.0	75	28.9	0	1	68	0.00	30.187 
00:35	36.0	36.0	36.0	75	28.9	0	1	68	0.00	30.187 
00:40	35.9	35.9	35.9	75	28.8	0	1	68	0.00	30.187 
00:45	35.8	35.8	35.8	75	28.7	0	1	68	0.00	30.188 
00:50	35.8	35.8	35.8	75	28.7	0	0	---	0.00	30.188 
00:55	35.6	35.6	35.6	75	28.5	0	0	---	0.00	30.188 
01:00	35.6	35.6	35.6	76	28.8	0	0	---	0.00	30.187 
01:05	35.3	35.3	35.3	76	28.5	0	0	---	0.00	30.187 
01:10	35.0	35.0	35.0	76	28.2	0	0	---	0.00	30.187 
01:15	34.7	34.7	34.7	76	27.9	0	0	---	0.00	30.183 
01:20	34.4	34.4	34.4	77	27.9	0	0	---	0.00	30.183 
01:25	34.1	34.1	34.1	77	27.7	0	0	---	0.00	30.183 
01:30	34.0	34.0	34.0	77	27.6	0	0	---	0.00	30.186 
01:35	33.7	33.7	33.7	78	27.6	0	0	---	0.00	30.186 
01:40	33.5	33.5	33.5	78	27.4	0	0	---	0.00	30.186 
01:45	33.5	33.5	33.5	78	27.4	0	0	---	0.00	30.187 
01:50	33.4	33.4	33.4	79	27.6	0	0	---	0.00	30.187 
01:55	33.4	33.4	33.4	79	27.6	0	0	---	0.00	30.187 
02:00	33.4	33.4	33.4	79	27.6	0	0	---	0.00	30.184 
02:05	32.5	32.5	32.5	80	27.0	0	0	---	0.00	30.171 
02:10	32.4	32.4	32.4	80	26.9	0	0	---	0.00	30.171 
02:15	32.2	32.2	32.2	81	27.0	0	0	---	0.00	30.171 
02:20	32.1	32.1	32.1	80	26.6	0	0	---	0.00	30.171 
02:25	31.8	31.8	31.8	81	26.6	0	0	---	0.00	30.171 
02:30	31.5	31.5	31.5	81	26.4	0	0	---	0.00	30.173 
02:35	31.3	31.3	31.3	81	26.2	0	0	---	0.00	30.173 
02:40	31.2	31.2	31.2	82	26.4	0	0	---	0.00	30.173 
02:45	31.0	31.0	31.0	82	26.2	0	0	---	0.00	30.178 
02:50	31.0	31.0	31.0	82	26.2	0	0	---	0.00	30.178 
02:55	31.0	31.0	31.0	83	26.5	0	0	---	0.00	30.178 
03:00	30.9	30.9	30.9	83	26.4	0	0	---	0.00	30.183 
03:05	30.9	30.9	30.9	83	26.4	0	0	---	0.00	30.183 
03:10	30.9	30.9	30.9	83	26.4	0	0	---	0.00	30.183 
03:15	30.7	30.7	30.7	84	26.4	0	0	---	0.00	30.183 
03:20	30.7	30.7	30.7	84	26.4	0	0	---	0.00	30.183 
03:25	30.6	30.6	30.6	84	26.4	0	0	---	0.00	30.183 
03:30	30.4	30.4	30.4	84	26.2	0	0	---	0.00	30.187 
03:35	30.3	30.3	30.3	84	26.1	0	0	---	0.00	30.187 
03:40	30.3	30.3	30.3	84	26.1	0	0	---	0.00	30.187 
03:45	30.1	30.1	30.1	84	25.9	0	0	---	0.00	30.186 
03:50	30.1	30.1	30.1	84	25.9	0	0	---	0.00	30.186 
03:55	30.3	30.3	30.3	85	26.3	0	0	---	0.00	30.186 
04:00	30.4	30.4	30.4	85	26.4	0	0	---	0.00	30.180 
04:05	30.6	30.6	30.6	85	26.6	0	0	---	0.00	30.180 
04:10	30.7	30.7	30.7	85	26.7	0	0	---	0.00	30.180 
04:15	30.9	30.9	30.9	85	26.9	0	0	---	0.00	30.183 
04:20	31.0	31.0	31.0	85	27.0	0	0	---	0.00	30.183 
04:25	31.0	31.0	31.0	85	27.0	0	0	---	0.00	30.183 
04:30	31.2	31.2	31.2	85	27.2	0	0	---	0.00	30.184 
04:35	31.2	31.2	31.2	84	26.9	0	1	68	0.00	30.184 
04:40	31.2	31.2	31.2	84	26.9	0	0	---	0.00	30.184 
04:45	31.2	31.2	31.2	84	26.9	0	0	---	0.00	30.187 
04:50	31.2	31.2	31.2	84	26.9	0	0	---	0.00	30.187 
04:55	31.2	31.2	31.2	84	26.9	0	0	---	0.00	30.187 
05:00	31.2	31.2	31.2	84	26.9	0	0	---	0.00	30.187 
05:05	31.3	31.3	31.3	84	27.0	0	0	---	0.00	30.187 
05:10	31.5	31.5	31.5	84	27.2	0	1	68	0.00	30.187 
05:15	31.5	31.5	31.5	84	27.2	0	1	68	0.00	30.188 
05:20	31.6	31.6	31.6	84	27.3	0	1	68	0.00	30.188 
05:25	31.8	31.8	31.8	84	27.5	0	1	68	0.00	30.188 
05:30	31.8	31.8	31.8	84	27.5	0	0	---	0.00	30.188 
05:35	31.9	31.9	31.9	84	27.6	0	1	68	0.00	30.188 
05:40	31.9	31.9	31.9	84	27.6	0	0	---	0.00	30.188 
05:45	31.9	31.9	31.9	84	27.6	0	1	68	0.00	30.188 
05:50	32.1	32.1	32.1	84	27.8	0	1	68	0.00	30.188 
05:55	32.1	32.1	32.1	84	27.8	0	0	---	0.00	30.188 
06:00	32.1	32.1	32.1	84	27.8	0	1	68	0.00	30.191 
06:05	32.2	32.2	32.2	84	27.9	0	1	68	0.00	30.191 
06:10	32.2	32.2	32.2	84	27.9	0	0	---	0.00	30.191 
06:15	32.4	32.4	32.4	84	28.1	0	0	---	0.00	30.195 
06:20	32.4	32.4	32.4	84	28.1	0	1	68	0.00	30.195 
06:25	32.4	32.4	32.4	84	28.1	0	0	---	0.00	30.195 
06:30	32.5	32.5	32.5	84	28.2	0	0	---	0.00	30.203 
06:35	32.5	32.5	32.5	84	28.2	0	0	---	0.00	30.203 
06:40	32.7	32.7	32.7	84	28.4	0	0	---	0.00	30.203 
06:45	32.7	32.7	32.7	84	28.4	0	1	68	0.00	30.204 
06:50	32.8	32.8	32.8	83	28.2	0	1	68	0.00	30.204 
06:55	32.8	32.8	32.8	83	28.2	0	2	68	0.00	30.204 
07:00	32.9	32.9	32.9	83	28.3	0	1	68	0.00	30.204 
07:05	32.9	32.9	32.9	83	28.3	0	1	68	0.00	30.204 
07:10	33.1	33.1	33.1	82	28.2	0	1	68	0.00	30.204 
07:15	33.1	33.1	33.1	82	28.2	0	1	68	0.00	30.204 
07:20	33.1	33.1	33.1	82	28.2	0	1	68	0.00	30.204 
07:25	33.2	33.2	33.2	82	28.3	0	2	68	0.00	30.204 
07:30	33.2	33.2	33.2	81	28.0	0	2	68	0.00	30.210 
07:35	33.4	33.4	33.4	81	28.2	0	0	---	0.00	30.210 
07:40	33.4	33.4	33.4	81	28.2	0	1	68	0.00	30.210 
07:45	33.5	33.5	33.5	81	28.3	0	1	68	0.00	30.207 
07:50	33.5	33.5	33.5	81	28.3	0	1	68	0.00	30.207 
07:55	33.7	33.7	33.7	81	28.5	0	1	68	0.00	30.207 
08:00	33.7	33.7	33.7	81	28.5	0	1	68	0.00	30.219 
08:05	33.8	33.8	33.8	81	28.6	0	1	68	0.00	30.219 
08:10	33.8	33.8	33.8	81	28.6	0	1	68	0.00	30.219 
08:15	34.0	34.0	34.0	81	28.8	0	1	68	0.00	30.219 
08:20	34.1	34.1	34.1	81	28.9	0	0	---	0.00	30.219 
08:25	34.1	34.1	34.1	80	28.6	0	1	68	0.00	30.219 
08:30	34.3	34.3	34.3	80	28.8	0	1	68	0.00	30.215 
08:35	34.4	34.4	34.4	80	28.9	0	1	68	0.00	30.215 
08:40	34.6	34.6	34.6	80	29.1	0	2	68	0.00	30.215 
08:45	34.6	34.6	34.6	79	28.8	0	2	68	0.00	30.217 
08:50	34.7	34.7	34.7	79	28.9	0	2	68	0.00	30.217 
08:55	34.9	34.9	34.9	79	29.1	0	2	68	0.00	30.217 
09:00	34.9	34.9	34.9	78	28.7	0	1	68	0.00	30.212 
09:05	35.2	35.2	35.2	78	29.0	0	3	68	0.00	30.212 
09:10	35.3	35.3	35.3	77	28.8	0	1	68	0.00	30.212 
09:15	35.5	35.5	35.5	78	29.3	0	1	68	0.00	30.220 
09:20	35.5	35.5	35.5	77	29.0	0	2	68	0.00	30.220 
09:25	35.6	35.6	35.6	76	28.8	0	3	68	0.00	30.220 
09:30	35.8	35.8	35.8	76	29.0	0	2	68	0.00	30.219 
09:35	35.8	35.8	35.8	75	28.7	1	4	292	0.00	30.219 
09:40	35.6	35.6	35.6	74	28.1	0	2	292	0.00	30.219 
09:45	35.8	35.8	35.8	75	28.7	0	1	292	0.00	30.221 
09:50	35.6	35.6	35.6	74	28.1	1	3	0	0.00	30.221 
09:55	35.8	35.8	35.8	73	28.0	0	2	0	0.00	30.221 
10:00	35.9	35.9	35.9	73	28.1	1	3	292	0.00	30.217 
10:05	36.0	36.0	36.0	72	27.9	0	2	292	0.00	30.217 
10:10	36.2	36.2	36.2	71	27.7	1	2	292	0.00	30.217 
10:15	36.2	36.2	36.2	70	27.4	0	3	292	0.00	30.218 
10:20	36.3	36.3	36.3	69	27.1	1	2	292	0.00	30.218 
10:25	36.5	36.5	36.5	68	27.0	0	2	292	0.00	30.218 
10:30	36.6	36.6	36.6	68	27.1	0	1	292	0.00	30.218 
10:35	36.8	36.8	36.8	66	26.5	0	2	292	0.00	30.218 
10:40	36.9	36.9	36.9	66	26.6	0	2	292	0.00	30.218 
10:45	37.2	37.2	37.2	65	26.5	0	3	292	0.00	30.218 
10:50	37.5	37.5	37.5	65	26.8	0	1	292	0.00	30.218 
10:55	37.8	37.8	37.8	64	26.7	0	1	292	0.00	30.218 
11:00	37.8	37.8	37.8	63	26.4	0	2	292	0.00	30.217 
11:05	37.8	37.8	37.8	62	26.0	0	1	292	0.00	30.217 
11:10	37.9	37.9	37.9	62	26.1	0	2	315	0.00	30.217 
11:15	38.0	38.0	38.0	61	25.8	0	2	315	0.00	30.218 
11:20	38.0	38.0	38.0	61	25.8	1	3	315	0.00	30.218 
11:25	38.0	38.0	38.0	60	25.4	1	2	315	0.00	30.218 
11:30	38.0	38.0	38.0	60	25.4	0	2	315	0.00	30.218 
11:35	38.2	38.2	38.2	61	26.0	0	2	315	0.00	30.218 
11:40	38.3	38.3	38.3	60	25.6	0	2	315	0.00	30.218 
11:45	38.5	38.5	38.5	60	25.8	0	2	315	0.00	30.215 
11:50	38.6	38.6	38.6	59	25.5	0	2	315	0.00	30.215 
11:55	38.8	38.8	38.8	59	25.7	1	3	315	0.00	30.215 
12:00	39.1	39.1	39.1	59	26.0	0	1	315	0.00	30.203 
12:05	39.5	39.5	39.5	59	26.4	0	2	315	0.00	30.203 
12:10	39.6	39.6	39.6	59	26.5	1	4	90	0.00	30.203 
12:15	39.8	39.8	39.8	59	26.7	0	1	90	0.00	30.205 
12:20	39.2	39.2	39.2	57	25.3	0	2	90	0.00	30.205 
12:25	39.2	39.2	39.2	58	25.7	1	3	90	0.00	30.205 
12:30	39.3	39.3	39.3	59	26.2	0	1	90	0.00	30.201 
12:35	39.6	39.6	39.6	60	26.9	1	3	90	0.00	30.201 
12:40	40.2	40.2	40.2	60	27.4	1	3	90	0.00	30.201 
12:45	40.5	40.5	40.5	58	26.9	0	3	90	0.00	30.193 
12:50	40.5	40.5	40.5	58	26.9	1	5	90	0.00	30.193 
12:55	40.5	40.5	40.5	58	26.9	1	6	112	0.00	30.193 
13:00	40.6	40.6	40.6	58	27.0	0	2	112	0.00	30.187 
13:05	40.5	40.5	40.5	58	26.9	0	2	112	0.00	30.187 
13:10	40.3	40.3	40.3	58	26.7	0	2	112	0.00	30.187 
13:15	40.5	40.5	40.5	58	26.9	1	2	112	0.00	30.186 
13:20	40.3	40.3	40.3	57	26.3	0	2	112	0.00	30.186 
13:25	40.5	40.5	40.5	58	26.9	1	3	112	0.00	30.186 
13:30	40.8	40.8	40.8	58	27.2	2	5	112	0.00	30.180 
13:35	41.2	41.2	41.2	56	26.7	1	3	45	0.00	30.180 
13:40	41.1	41.1	41.1	56	26.6	1	2	292	0.00	30.180 
13:45	41.1	41.1	41.1	56	26.6	1	4	90	0.00	30.178 
13:50	41.1	41.1	41.1	56	26.6	1	3	292	0.00	30.178 
13:55	40.9	40.9	40.9	55	26.0	0	2	292	0.00	30.178 
14:00	40.8	40.8	40.8	56	26.3	0	2	292	0.00	30.180 
14:05	40.8	40.8	40.8	55	25.9	0	1	292	0.00	30.180 
14:10	40.8	40.8	40.8	56	26.3	0	2	292	0.00	30.180 
14:15	40.8	40.8	40.8	57	26.8	0	1	292	0.00	30.185 
14:20	40.8	40.8	40.8	59	27.6	0	2	292	0.00	30.185 
14:25	41.1	41.1	41.1	58	27.5	0	0	---	0.00	30.185 
14:30	41.1	41.1	41.1	57	27.0	0	1	292	0.00	30.185 
14:35	41.1	41.1	41.1	57	27.0	0	1	292	0.00	30.185 
14:40	41.1	41.1	41.1	56	26.6	0	1	292	0.00	30.185 
14:45	41.1	41.1	41.1	55	26.2	0	1	292	0.00	30.181 
14:50	40.8	40.8	40.8	55	25.9	0	1	292	0.00	30.181 
14:55	40.9	40.9	40.9	56	26.4	0	1	292	0.00	30.181 
15:00	41.1	41.1	41.1	58	27.5	0	1	292	0.00	30.176 
15:05	41.1	41.1	41.1	56	26.6	1	3	292	0.00	30.176 
15:10	40.9	40.9	40.9	55	26.0	1	4	292	0.00	30.176 
15:15	40.8	40.8	40.8	55	25.9	1	3	292	0.00	30.180 
15:20	40.6	40.6	40.6	56	26.1	0	2	292	0.00	30.180 
15:25	40.6	40.6	40.6	56	26.1	1	3	292	0.00	30.180 
15:30	40.6	40.6	40.6	56	26.1	1	2	292	0.00	30.176 
15:35	40.6	40.6	40.6	56	26.1	0	2	292	0.00	30.176 
15:40	40.6	40.6	40.6	56	26.1	1	2	292	0.00	30.176 
15:45	40.6	40.6	40.6	56	26.1	0	1	292	0.00	30.178 
15:50	40.8	40.8	40.8	56	26.3	0	2	292	0.00	30.178 
15:55	40.8	40.8	40.8	55	25.9	0	1	292	0.00	30.178 
16:00	40.8	40.8	40.8	56	26.3	0	2	292	0.00	30.176 
16:05	40.8	40.8	40.8	55	25.9	0	1	292	0.00	30.176 
16:10	40.8	40.8	40.8	56	26.3	0	1	292	0.00	30.176 
16:15	40.6	40.6	40.6	56	26.1	0	2	292	0.00	30.174 
16:20	40.6	40.6	40.6	56	26.1	0	2	292	0.00	30.174 
16:25	40.6	40.6	40.6	57	26.6	0	1	292	0.00	30.174 
16:30	40.5	40.5	40.5	57	26.5	0	2	292	0.00	30.175 
16:35	40.5	40.5	40.5	58	26.9	0	0	---	0.00	30.175 
16:40	40.3	40.3	40.3	56	25.9	0	2	292	0.00	30.175 
16:45	40.2	40.2	40.2	56	25.8	0	1	292	0.00	30.177 
16:50	40.1	40.1	40.1	57	26.1	1	3	292	0.00	30.177 
16:55	39.9	39.9	39.9	57	25.9	0	0	---	0.00	30.177 
17:00	39.8	39.8	39.8	58	26.2	0	1	292	0.00	30.176 
17:05	39.6	39.6	39.6	58	26.1	0	1	292	0.00	30.176 
17:10	39.5	39.5	39.5	58	26.0	0	0	---	0.00	30.176 
17:15	39.5	39.5	39.5	59	26.4	0	0	---	0.00	30.173 
17:20	39.5	39.5	39.5	59	26.4	0	0	---	0.00	30.173 
17:25	39.3	39.3	39.3	59	26.2	0	0	---	0.00	30.173 
17:30	39.2	39.2	39.2	59	26.1	0	0	---	0.00	30.175 
17:35	39.1	39.1	39.1	60	26.4	0	1	292	0.00	30.175 
17:40	38.9	38.9	38.9	60	26.2	0	0	---	0.00	30.175 
17:45	38.6	38.6	38.6	61	26.3	0	0	---	0.00	30.177 
17:50	38.3	38.3	38.3	61	26.0	0	0	---	0.00	30.177 
17:55	38.0	38.0	38.0	61	25.8	0	0	---	0.00	30.177 
18:00	37.6	37.6	37.6	62	25.8	0	0	---	0.00	30.180 
18:05	37.2	37.2	37.2	64	26.2	0	0	---	0.00	30.180 
18:10	36.9	36.9	36.9	65	26.3	0	0	---	0.00	30.180 
18:15	36.6	36.6	36.6	65	26.0	0	0	---	0.00	30.182 
18:20	36.2	36.2	36.2	65	25.6	0	0	---	0.00	30.182 
18:25	35.9	35.9	35.9	66	25.7	0	0	---	0.00	30.182 
18:30	35.6	35.6	35.6	67	25.7	0	0	---	0.00	30.192 
18:35	35.2	35.2	35.2	69	26.1	0	0	---	0.00	30.192 
18:40	34.9	34.9	34.9	70	26.1	0	0	---	0.00	30.192 
18:45	34.6	34.6	34.6	70	25.8	0	0	---	0.00	30.192 
18:50	34.3	34.3	34.3	71	25.9	0	0	---	0.00	30.192 
18:55	34.0	34.0	34.0	72	25.9	0	0	---	0.00	30.192 
19:00	33.5	33.5	33.5	73	25.8	0	0	---	0.00	30.197 
19:05	33.2	33.2	33.2	74	25.8	0	0	---	0.00	30.197 
19:10	32.9	32.9	32.9	74	25.5	0	0	---	0.00	30.197 
19:15	32.7	32.7	32.7	75	25.7	0	0	---	0.00	30.196 
19:20	32.4	32.4	32.4	75	25.4	0	0	---	0.00	30.196 
19:25	32.1	32.1	32.1	76	25.4	0	0	---	0.00	30.196 
19:30	31.8	31.8	31.8	76	25.1	0	0	---	0.00	30.196 
19:35	31.6	31.6	31.6	77	25.2	0	0	---	0.00	30.196 
19:40	31.3	31.3	31.3	77	24.9	0	0	---	0.00	30.196 
19:45	31.0	31.0	31.0	78	25.0	0	0	---	0.00	30.201 
19:50	30.9	30.9	30.9	78	24.9	0	0	---	0.00	30.201 
19:55	30.6	30.6	30.6	78	24.6	0	0	---	0.00	30.201 
20:00	30.4	30.4	30.4	79	24.7	0	0	---	0.00	30.198 
20:05	30.1	30.1	30.1	79	24.4	0	0	---	0.00	30.198 
20:10	29.8	29.8	29.8	81	24.7	0	1	292	0.00	30.198 
20:15	29.7	29.7	29.7	81	24.6	0	0	---	0.00	30.198 
20:20	29.5	29.5	29.5	81	24.4	0	0	---	0.00	30.198 
20:25	29.4	29.4	29.4	82	24.6	0	0	---	0.00	30.198 
20:30	29.4	29.4	29.4	83	24.9	0	0	---	0.00	30.199 
20:35	29.3	29.3	29.3	83	24.8	0	0	---	0.00	30.199 
20:40	29.3	29.3	29.3	83	24.8	0	0	---	0.00	30.199 
20:45	29.3	29.3	29.3	84	25.1	0	0	---	0.00	30.203 
20:50	29.3	29.3	29.3	84	25.1	0	0	---	0.00	30.203 
20:55	29.1	29.1	29.1	84	24.9	0	0	---	0.00	30.203 
21:00	29.0	29.0	29.0	84	24.8	0	0	---	0.00	30.207 
21:05	29.0	29.0	29.0	84	24.8	0	0	---	0.00	30.207 
21:10	28.8	28.8	28.8	84	24.6	0	0	---	0.00	30.207 
21:15	28.7	28.7	28.7	84	24.5	0	0	---	0.00	30.206 
21:20	28.5	28.5	28.5	85	24.6	0	0	---	0.00	30.206 
21:25	28.5	28.5	28.5	85	24.6	0	0	---	0.00	30.206 
21:30	28.4	28.4	28.4	85	24.5	0	0	---	0.00	30.206 
21:35	28.4	28.4	28.4	85	24.5	0	0	---	0.00	30.206 
21:40	28.2	28.2	28.2	85	24.3	0	0	---	0.00	30.206 
21:45	28.1	28.1	28.1	85	24.2	0	0	---	0.00	30.197 
21:50	27.9	27.9	27.9	86	24.3	0	0	---	0.00	30.197 
21:55	27.9	27.9	27.9	86	24.3	0	0	---	0.00	30.197 
22:00	27.8	27.8	27.8	86	24.2	0	0	---	0.00	30.197 
22:05	27.8	27.8	27.8	86	24.2	0	0	---	0.00	30.197 
22:10	27.6	27.6	27.6	86	24.0	0	0	---	0.00	30.197 
22:15	27.5	27.5	27.5	86	23.9	0	0	---	0.00	30.197 
22:20	27.5	27.5	27.5	86	23.9	0	0	---	0.00	30.197 
22:25	27.3	27.3	27.3	87	24.0	0	0	---	0.00	30.197 
22:30	27.2	27.2	27.2	87	23.9	0	0	---	0.00	30.197 
22:35	27.0	27.0	27.0	87	23.7	0	0	---	0.00	30.197 
22:40	26.9	26.9	26.9	87	23.6	0	0	---	0.00	30.197 
22:45	26.7	26.7	26.7	87	23.4	0	0	---	0.00	30.198 
22:50	26.7	26.7	26.7	87	23.4	0	0	---	0.00	30.198 
22:55	26.6	26.6	26.6	87	23.3	0	0	---	0.00	30.198 

CoCoRaHS
IN-AL-39
A2 Web Hosting
Creative Commons License
GoDaddy
search engine by freefind advanced

loaded 2018-11-20 03:36:45 • last modified 2010-11-18 10:43:29
Privacy PolicyDisclaimer
• wx.awcolley.com is powered by PmWiki v.2002016 •
• all content (unless otherwise noted) © 2018 A W Colley